Reecon Whale — 9HA2885 — position and weather

sailwx.info

Track history (hours):
 
Tides and Currents Weather Stations Pressure Air Temp Water Temp Dewpoint Dewpoint Depression Visibility Wind Speed Wind Dir Waves Ship Positions

Reecon Whale

Last reported at 2014-Sep-21 11:33 UTC. Time now 2014-Sep-21 12:10 UTC.
Position N 38°33' W 009°48'.

Length 145 m; draft 8.9 m.

Type: Ship. MMSI: 256579000.

Date/timePositionNaut miles runAvg speedWind from/ knotsBaromVisibWave heightAir tempDewpointWater temp
2014-Sep-21 11:33N 38°33' W 009°48'1212.0
2014-Sep-21 10:32N 38°21' W 009°45'1212.2
2014-Sep-21 09:33N 38°10' W 009°41'1211.9
2014-Sep-21 08:33N 37°58' W 009°38'1211.8
2014-Sep-21 07:33N 37°47' W 009°35'1111.4
2014-Sep-21 06:33N 37°35' W 009°31'1111.5
2014-Sep-21 05:33N 37°24' W 009°28'4710.8
2014-Sep-21 01:11N 36°42' W 009°02'711.5
2014-Sep-21 00:34N 36°40' W 008°53'1211.7
2014-Sep-20 23:33N 36°36' W 008°39'1111.4
2014-Sep-20 22:34N 36°33' W 008°26'1211.5
2014-Sep-20 21:31N 36°29' W 008°12'1111.5
2014-Sep-20 20:34N 36°26' W 007°59'1211.7
2014-Sep-20 19:34N 36°22' W 007°45'1211.8
2014-Sep-20 18:33N 36°18' W 007°31'1211.8
2014-Sep-20 17:33N 36°15' W 007°17'8810.7
2014-Sep-20 09:17N 36°00' W 005°29'7 8.9
2014-Sep-20 08:30N 36°06' W 005°24'1 0.1
2014-Sep-19 11:29N 36°06' W 005°25'0 0.0
2014-Sep-19 10:17N 36°06' W 005°25'0 0.1
2014-Sep-19 07:18N 36°06' W 005°25'0 0.0
2014-Sep-19 05:06N 36°06' W 005°25'0 0.0
2014-Sep-19 02:29N 36°06' W 005°25'1 0.2
2014-Sep-18 23:26N 36°05' W 005°25'4 4.1
2014-Sep-18 22:26N 36°02' W 005°22'218 9.8
2014-Sep-18 00:17N 37°28' W 009°32'811.2
2014-Sep-17 23:33N 37°36' W 009°31'1111.0
2014-Sep-17 22:33N 37°47' W 009°30'1111.0
2014-Sep-17 21:33N 37°58' W 009°28'1110.9
2014-Sep-17 20:34N 38°09' W 009°27'1110.7
2014-Sep-17 19:33N 38°19' W 009°25'1110.7
2014-Sep-17 18:33N 38°30' W 009°24'10 9.7
2014-Sep-17 17:33N 38°39' W 009°20'8 8.4
2014-Sep-17 16:34N 38°42' W 009°10'0 0.1
2014-Sep-17 15:33N 38°42' W 009°10'0 0.0
2014-Sep-17 14:32N 38°42' W 009°10'0 0.0
2014-Sep-17 13:32N 38°42' W 009°10'0 0.0
2014-Sep-17 12:32N 38°42' W 009°10'0 0.0
2014-Sep-17 11:32N 38°42' W 009°10'0 0.0
2014-Sep-17 10:32N 38°42' W 009°10'0 0.0
2014-Sep-17 09:32N 38°42' W 009°10'0 0.0
2014-Sep-17 08:32N 38°42' W 009°10'0 0.0
2014-Sep-17 07:32N 38°42' W 009°10'0 0.0
2014-Sep-17 06:32N 38°42' W 009°10'0 0.0
2014-Sep-17 05:32N 38°42' W 009°10'0 0.0
2014-Sep-17 04:32N 38°42' W 009°10'0 0.0
2014-Sep-17 03:32N 38°42' W 009°10'0 0.0
2014-Sep-17 02:32N 38°42' W 009°10'0 0.0
2014-Sep-17 01:32N 38°42' W 009°10'0 0.0
2014-Sep-17 00:32N 38°42' W 009°10'0 0.0
2014-Sep-16 23:32N 38°42' W 009°10'0 0.0
2014-Sep-16 22:32N 38°42' W 009°10'0 0.0
2014-Sep-16 21:32N 38°42' W 009°10'0 0.0
2014-Sep-16 20:32N 38°42' W 009°10'0 0.0
2014-Sep-16 19:32N 38°42' W 009°10'0 0.0
2014-Sep-16 18:32N 38°42' W 009°10'0 0.0
2014-Sep-16 17:32N 38°42' W 009°10'4 4.5
2014-Sep-16 16:33N 38°41' W 009°15'10 9.8
2014-Sep-16 15:33N 38°37' W 009°27'20 9.7
2014-Sep-16 13:30N 38°52' W 009°44'34 0.7
2014-Sep-14 12:33N 38°18' W 009°43'1211.8
2014-Sep-14 11:32N 38°06' W 009°40'1211.7
2014-Sep-14 10:33N 37°55' W 009°37'1211.5
2014-Sep-14 09:33N 37°44' W 009°33'1211.4
2014-Sep-14 08:29N 37°32' W 009°30'1111.5
2014-Sep-14 07:33N 37°22' W 009°27'1411.4
2014-Sep-14 06:21N 37°08' W 009°23'911.6
2014-Sep-14 05:32N 36°59' W 009°21'1110.8
2014-Sep-14 04:33N 36°50' W 009°15'1110.6
2014-Sep-14 03:30N 36°42' W 009°04'1010.7
2014-Sep-14 02:33N 36°39' W 008°52'1110.8
2014-Sep-14 01:33N 36°36' W 008°39'4310.7
2014-Sep-13 21:33N 36°23' W 007°48'1110.9
2014-Sep-13 20:33N 36°20' W 007°35'1010.5
2014-Sep-13 19:33N 36°17' W 007°23'1110.4
2014-Sep-13 18:31N 36°13' W 007°10'1010.4
2014-Sep-13 17:33N 36°10' W 006°58'1010.3
2014-Sep-13 16:33N 36°07' W 006°46'1010.2
2014-Sep-13 15:32N 36°04' W 006°34'56 1.5
2014-Sep-12 02:33N 35°58' W 005°25'  
Track history (hours):
 
Tides and Currents Weather Stations Pressure Air Temp Water Temp Dewpoint Dewpoint Depression Visibility Wind Speed Wind Dir Waves Ship Positions

Reecon Whale

Last reported at 2014-Sep-21 11:33 UTC. Time now 2014-Sep-21 12:10 UTC.
Position N 38°33' W 009°48'.

Length 145 m; draft 8.9 m.

Type: Ship. MMSI: 256579000.

Date/timePositionNaut miles runAvg speedWind from/ knotsBaromVisibWave heightAir tempDewpointWater temp
2014-Sep-21 11:33N 38°33' W 009°48'1212.0
2014-Sep-21 10:32N 38°21' W 009°45'1212.2
2014-Sep-21 09:33N 38°10' W 009°41'1211.9
2014-Sep-21 08:33N 37°58' W 009°38'1211.8
2014-Sep-21 07:33N 37°47' W 009°35'1111.4
2014-Sep-21 06:33N 37°35' W 009°31'1111.5
2014-Sep-21 05:33N 37°24' W 009°28'4710.8
2014-Sep-21 01:11N 36°42' W 009°02'711.5
2014-Sep-21 00:34N 36°40' W 008°53'1211.7
2014-Sep-20 23:33N 36°36' W 008°39'1111.4
2014-Sep-20 22:34N 36°33' W 008°26'1211.5
2014-Sep-20 21:31N 36°29' W 008°12'1111.5
2014-Sep-20 20:34N 36°26' W 007°59'1211.7
2014-Sep-20 19:34N 36°22' W 007°45'1211.8
2014-Sep-20 18:33N 36°18' W 007°31'1211.8
2014-Sep-20 17:33N 36°15' W 007°17'8810.7
2014-Sep-20 09:17N 36°00' W 005°29'7 8.9
2014-Sep-20 08:30N 36°06' W 005°24'1 0.1
2014-Sep-19 11:29N 36°06' W 005°25'0 0.0
2014-Sep-19 10:17N 36°06' W 005°25'0 0.1
2014-Sep-19 07:18N 36°06' W 005°25'0 0.0
2014-Sep-19 05:06N 36°06' W 005°25'0 0.0
2014-Sep-19 02:29N 36°06' W 005°25'1 0.2
2014-Sep-18 23:26N 36°05' W 005°25'4 4.1
2014-Sep-18 22:26N 36°02' W 005°22'218 9.8
2014-Sep-18 00:17N 37°28' W 009°32'811.2
2014-Sep-17 23:33N 37°36' W 009°31'1111.0
2014-Sep-17 22:33N 37°47' W 009°30'1111.0
2014-Sep-17 21:33N 37°58' W 009°28'1110.9
2014-Sep-17 20:34N 38°09' W 009°27'1110.7
2014-Sep-17 19:33N 38°19' W 009°25'1110.7
2014-Sep-17 18:33N 38°30' W 009°24'10 9.7
2014-Sep-17 17:33N 38°39' W 009°20'8 8.4
2014-Sep-17 16:34N 38°42' W 009°10'0 0.1
2014-Sep-17 15:33N 38°42' W 009°10'0 0.0
2014-Sep-17 14:32N 38°42' W 009°10'0 0.0
2014-Sep-17 13:32N 38°42' W 009°10'0 0.0
2014-Sep-17 12:32N 38°42' W 009°10'0 0.0
2014-Sep-17 11:32N 38°42' W 009°10'0 0.0
2014-Sep-17 10:32N 38°42' W 009°10'0 0.0
2014-Sep-17 09:32N 38°42' W 009°10'0 0.0
2014-Sep-17 08:32N 38°42' W 009°10'0 0.0
2014-Sep-17 07:32N 38°42' W 009°10'0 0.0
2014-Sep-17 06:32N 38°42' W 009°10'0 0.0
2014-Sep-17 05:32N 38°42' W 009°10'0 0.0
2014-Sep-17 04:32N 38°42' W 009°10'0 0.0
2014-Sep-17 03:32N 38°42' W 009°10'0 0.0
2014-Sep-17 02:32N 38°42' W 009°10'0 0.0
2014-Sep-17 01:32N 38°42' W 009°10'0 0.0
2014-Sep-17 00:32N 38°42' W 009°10'0 0.0
2014-Sep-16 23:32N 38°42' W 009°10'0 0.0
2014-Sep-16 22:32N 38°42' W 009°10'0 0.0
2014-Sep-16 21:32N 38°42' W 009°10'0 0.0
2014-Sep-16 20:32N 38°42' W 009°10'0 0.0
2014-Sep-16 19:32N 38°42' W 009°10'0 0.0
2014-Sep-16 18:32N 38°42' W 009°10'0 0.0
2014-Sep-16 17:32N 38°42' W 009°10'4 4.5
2014-Sep-16 16:33N 38°41' W 009°15'10 9.8
2014-Sep-16 15:33N 38°37' W 009°27'20 9.7
2014-Sep-16 13:30N 38°52' W 009°44'34 0.7
2014-Sep-14 12:33N 38°18' W 009°43'1211.8
2014-Sep-14 11:32N 38°06' W 009°40'1211.7
2014-Sep-14 10:33N 37°55' W 009°37'1211.5
2014-Sep-14 09:33N 37°44' W 009°33'1211.4
2014-Sep-14 08:29N 37°32' W 009°30'1111.5
2014-Sep-14 07:33N 37°22' W 009°27'1411.4
2014-Sep-14 06:21N 37°08' W 009°23'911.6
2014-Sep-14 05:32N 36°59' W 009°21'1110.8
2014-Sep-14 04:33N 36°50' W 009°15'1110.6
2014-Sep-14 03:30N 36°42' W 009°04'1010.7
2014-Sep-14 02:33N 36°39' W 008°52'1110.8
2014-Sep-14 01:33N 36°36' W 008°39'4310.7
2014-Sep-13 21:33N 36°23' W 007°48'1110.9
2014-Sep-13 20:33N 36°20' W 007°35'1010.5
2014-Sep-13 19:33N 36°17' W 007°23'1110.4
2014-Sep-13 18:31N 36°13' W 007°10'1010.4
2014-Sep-13 17:33N 36°10' W 006°58'1010.3
2014-Sep-13 16:33N 36°07' W 006°46'1010.2
2014-Sep-13 15:32N 36°04' W 006°34'56 1.5
2014-Sep-12 02:33N 35°58' W 005°25'  

Dump ship's entire track history